Time;durP1;ratioP1;P1;durP2;ratioP2;P2;SDS_P1;SDS_P2;PMS_P1;PMS_P2;Temp;Humidity;BMP_temperature;BMP_pressure;BME280_temperature;BME280_humidity;BME280_pressure;Samples;Min_cycle;Max_cycle;Signal;HPM_P1;HPM_P2
2022/01/20 09:15:28;;;;;;;4.33;1.03;;;;;;;4.13;99.24;99493.03;5110081;28;20560;-84
2022/01/20 09:18:05;;;;;;;1.23;0.93;;;;;;;5.06;97.06;99486.03;5092611;28;38801;-82
2022/01/20 09:20:34;;;;;;;2.07;1.07;;;;;;;6.03;91.10;99480.28;5092458;28;42152;-81
2022/01/20 09:23:03;;;;;;;1.13;0.83;;;;;;;6.56;86.03;99490.69;5091872;28;41891;-81
2022/01/20 09:25:31;;;;;;;1.40;0.77;;;;;;;6.61;82.99;99475.59;5126160;27;41042;-83
2022/01/20 09:28:00;;;;;;;0.83;0.77;;;;;;;6.72;80.93;99497.09;5092113;28;39234;-82
2022/01/20 09:30:31;;;;;;;3.37;0.90;;;;;;;6.70;79.10;99508.59;5092068;28;40367;-83
2022/01/20 09:33:09;;;;;;;2.33;0.97;;;;;;;6.72;79.30;99501.50;5091443;28;41765;-82
2022/01/20 09:35:41;;;;;;;1.87;1.40;;;;;;;7.11;78.67;99514.97;5091985;28;41061;-82
2022/01/20 09:38:09;;;;;;;1.27;0.90;;;;;;;7.30;76.72;99530.91;5125882;27;38654;-84
2022/01/20 09:40:38;;;;;;;6.33;1.23;;;;;;;7.42;75.87;99518.13;5108813;28;41742;-84
2022/01/20 09:43:10;;;;;;;1.77;0.70;;;;;;;7.62;74.63;99541.09;5091707;28;43292;-83
2022/01/20 09:45:40;;;;;;;1.23;0.90;;;;;;;7.54;74.74;99530.81;5091676;28;41378;-83
2022/01/20 09:48:09;;;;;;;2.50;0.60;;;;;;;7.42;74.82;99520.75;5091322;28;40182;-83
2022/01/20 09:51:06;;;;;;;1.17;0.60;;;;;;;7.35;74.22;99535.09;5099065;28;41936;-83
2022/01/20 09:54:06;;;;;;;1.40;0.87;;;;;;;7.66;73.57;99555.00;5085420;28;42009;-83
2022/01/20 09:56:53;;;;;;;1.43;1.07;;;;;;;7.96;72.60;99559.03;5097744;28;41336;-82
2022/01/20 09:59:21;;;;;;;3.43;1.07;;;;;;;7.95;71.01;99552.03;5089053;28;40206;-84
2022/01/20 10:01:52;;;;;;;2.57;0.80;;;;;;;8.08;70.61;99586.69;5090131;28;40574;-85
2022/01/20 10:04:24;;;;;;;5.30;1.10;;;;;;;8.15;70.82;99575.84;5088607;28;41992;-84
2022/01/20 10:06:53;;;;;;;2.50;0.80;;;;;;;8.26;70.54;99573.63;5086528;28;41111;-85
2022/01/20 10:09:29;;;;;;;2.20;0.80;;;;;;;8.49;70.11;99577.97;5090899;28;40118;-83
2022/01/20 10:12:07;;;;;;;1.20;0.63;;;;;;;8.34;69.57;99601.50;5104550;28;42513;-85
2022/01/20 10:14:48;;;;;;;2.80;0.60;;;;;;;7.90;70.58;99617.31;5086580;28;41793;-86
2022/01/20 10:17:36;;;;;;;0.93;0.70;;;;;;;7.42;70.81;99605.09;5088399;28;41071;-85
2022/01/20 10:20:08;;;;;;;0.40;0.40;;;;;;;6.67;70.07;99625.41;5070417;28;38826;-87
2022/01/20 10:22:56;;;;;;;2.70;0.60;;;;;;;5.52;71.48;99579.16;5082050;28;40727;-81
2022/01/20 10:25:42;;;;;;;0.30;0.30;;;;;;;5.17;73.99;99630.97;5081311;28;41976;-83
2022/01/20 10:28:22;;;;;;;1.00;0.50;;;;;;;4.92;75.11;99616.81;5097649;28;42060;-84
2022/01/20 10:30:55;;;;;;;1.67;0.60;;;;;;;4.87;75.34;99598.56;5076662;28;38627;-81
2022/01/20 10:33:24;;;;;;;0.40;0.40;;;;;;;4.93;75.67;99613.28;5091305;28;41887;-87
2022/01/20 10:35:53;;;;;;;0.77;0.50;;;;;;;5.09;74.74;99632.94;5110907;28;43023;-80
2022/01/20 10:38:50;;;;;;;1.17;0.60;;;;;;;4.97;74.50;99633.28;5072640;28;42009;-85
2022/01/20 10:41:30;;;;;;;0.40;0.40;;;;;;;4.65;74.88;99650.75;5090060;28;38931;-80
2022/01/20 10:44:04;;;;;;;3.17;0.70;;;;;;;4.19;76.16;99629.22;5105776;28;42388;-86
2022/01/20 10:46:47;;;;;;;0.40;0.40;;;;;;;3.80;77.66;99631.00;5056632;28;41690;-85
2022/01/20 10:49:23;;;;;;;0.43;0.43;;;;;;;3.68;79.15;99642.63;5056410;28;41198;-81
2022/01/20 10:51:57;;;;;;;1.87;0.43;;;;;;;3.56;79.59;99622.81;5056655;28;39359;-83
2022/01/20 10:54:25;;;;;;;2.73;0.40;;;;;;;3.78;79.46;99654.63;5060149;28;40999;-87
2022/01/20 10:56:55;;;;;;;0.30;0.30;;;;;;;3.90;79.24;99617.66;5075983;28;43072;-88
2022/01/20 10:59:24;;;;;;;4.13;0.53;;;;;;;4.15;78.52;99633.66;5076892;28;40665;-87
2022/01/20 11:02:02;;;;;;;1.10;0.50;;;;;;;4.31;77.93;99629.78;5072933;28;39854;-86
2022/01/20 11:04:32;;;;;;;2.27;0.40;;;;;;;4.27;77.33;99627.25;5056811;28;41901;-87
2022/01/20 11:07:05;;;;;;;1.10;0.40;;;;;;;6.88;76.85;99618.53;5093885;28;43071;-87
2022/01/20 11:09:39;;;;;;;1.97;0.83;;;;;;;11.76;65.49;99665.28;5069224;28;41013;-87
2022/01/20 11:12:28;;;;;;;1.10;0.40;;;;;;;14.76;54.17;99720.81;5061551;28;40191;-88
2022/01/20 11:15:08;;;;;;;1.40;0.87;;;;;;;17.66;44.56;99765.97;5055454;28;41271;-86
2022/01/20 11:17:40;;;;;;;2.10;0.50;;;;;;;18.65;41.66;99750.91;5067065;28;41986;-86
2022/01/20 11:20:13;;;;;;;0.77;0.40;;;;;;;18.73;40.88;99748.44;5071891;28;41189;-85
2022/01/20 11:22:52;;;;;;;1.73;0.80;;;;;;;16.89;42.54;99752.13;5072563;28;38986;-87
2022/01/20 11:25:23;;;;;;;2.30;0.80;;;;;;;15.46;45.41;99717.78;5072887;28;41291;-87
2022/01/20 11:28:13;;;;;;;1.00;0.60;;;;;;;14.07;48.95;99689.75;5050637;28;41898;-87
2022/01/20 11:31:11;;;;;;;1.80;0.50;;;;;;;13.64;48.79;99671.13;5055364;28;42092;-89
2022/01/20 11:34:16;;;;;;;0.50;0.50;;;;;;;15.36;47.59;99705.16;5071604;28;40823;-84
2022/01/20 11:36:47;;;;;;;1.77;0.70;;;;;;;17.48;43.48;99736.03;5108281;28;41673;-84
2022/01/20 11:39:18;;;;;;;0.67;0.40;;;;;;;19.51;39.22;99748.16;5109738;28;43313;-87
2022/01/20 11:41:49;;;;;;;1.60;0.60;;;;;;;20.06;37.08;99767.56;5071671;28;40899;-87
2022/01/20 11:44:18;;;;;;;1.07;0.60;;;;;;;18.63;36.25;99759.06;5060931;28;38953;-84
2022/01/20 11:46:48;;;;;;;1.07;0.63;;;;;;;17.87;38.63;99753.56;5083628;28;41118;-86
2022/01/20 11:49:18;;;;;;;1.60;0.60;;;;;;;16.80;39.87;99726.91;5077123;28;42740;-84
2022/01/20 11:51:52;;;;;;;1.63;0.73;;;;;;;16.49;41.20;99704.22;5071372;28;41089;-83
2022/01/20 11:54:29;;;;;;;0.93;0.50;;;;;;;17.18;39.35;99734.72;5089303;28;38905;-83
2022/01/20 11:57:11;;;;;;;1.87;0.40;;;;;;;16.86;40.26;99734.47;5072232;28;40908;-84
2022/01/20 11:59:42;;;;;;;1.50;0.63;;;;;;;16.12;39.54;99732.75;5055982;28;42644;-86
2022/01/20 12:02:11;;;;;;;1.00;0.50;;;;;;;15.37;41.09;99720.22;5075287;28;41186;-85
2022/01/20 12:04:41;;;;;;;3.77;0.67;;;;;;;15.03;42.32;99724.31;5093055;28;40879;-85
2022/01/20 12:07:26;;;;;;;2.30;0.67;;;;;;;14.27;42.65;99729.28;5075767;28;40633;-85
2022/01/20 12:10:06;;;;;;;0.97;0.50;;;;;;;13.42;44.04;99714.19;5074772;28;41741;-86
2022/01/20 12:12:39;;;;;;;3.60;0.77;;;;;;;12.47;44.19;99702.91;5055489;28;42137;-84
2022/01/20 12:15:11;;;;;;;2.30;0.60;;;;;;;11.89;45.64;99710.59;5071439;28;40455;-85
2022/01/20 12:17:41;;;;;;;0.97;0.70;;;;;;;11.53;48.04;99689.50;5088640;28;40885;-85
2022/01/20 12:20:11;;;;;;;2.97;1.00;;;;;;;10.97;47.78;99687.16;5071124;28;42058;-83
2022/01/20 12:22:48;;;;;;;1.20;0.40;;;;;;;10.90;49.08;99697.19;5054843;28;41362;-83
2022/01/20 12:25:18;;;;;;;0.77;0.57;;;;;;;10.81;48.95;99689.72;5072987;28;38843;-85
2022/01/20 12:27:46;;;;;;;0.67;0.50;;;;;;;10.54;50.29;99667.25;5065029;28;40920;-84
2022/01/20 12:30:19;;;;;;;4.07;0.77;;;;;;;10.38;50.05;99677.75;5073876;28;43012;-82
2022/01/20 12:32:56;;;;;;;0.73;0.60;;;;;;;10.18;50.43;99697.22;5091915;28;42471;-85
2022/01/20 12:35:24;;;;;;;1.20;0.50;;;;;;;9.69;50.10;99662.44;5075249;28;39707;-85
2022/01/20 12:37:53;;;;;;;2.40;0.50;;;;;;;9.53;50.71;99693.13;5074440;28;40731;-83
2022/01/20 12:40:23;;;;;;;1.50;0.50;;;;;;;9.34;50.79;99679.03;5074536;28;41626;-85
2022/01/20 12:42:51;;;;;;;2.30;0.50;;;;;;;9.26;51.58;99662.66;5074208;28;41592;-83
2022/01/20 12:48:11;;;;;;;2.00;0.60;;;;;;;14.15;44.69;99666.13;5074074;28;41708;-84
2022/01/20 12:50:54;;;;;;;3.03;0.67;;;;;;;14.19;41.75;99681.84;5074590;28;41790;-84
2022/01/20 12:53:34;;;;;;;0.97;0.50;;;;;;;12.82;42.41;99698.22;5074128;28;41467;-84
2022/01/20 12:56:02;;;;;;;0.90;0.87;;;;;;;12.19;43.61;99681.50;5074628;28;38911;-84
2022/01/20 12:58:30;;;;;;;1.87;1.03;;;;;;;13.78;42.00;99705.75;5074089;28;41023;-83
2022/01/20 13:00:59;;;;;;;2.53;0.70;;;;;;;15.92;38.54;99760.03;5074076;28;41944;-82
2022/01/20 13:03:37;;;;;;;1.57;0.70;;;;;;;17.37;36.46;99768.16;5073795;28;40962;-84
2022/01/20 13:06:06;;;;;;;1.00;0.77;;;;;;;17.88;36.51;99742.72;5074392;28;38865;-84
2022/01/20 13:08:36;;;;;;;0.70;0.50;;;;;;;18.89;34.19;99764.13;5073908;28;40684;-84
2022/01/20 13:11:06;;;;;;;0.73;0.53;;;;;;;19.85;32.47;99780.19;5073904;28;41975;-84
2022/01/20 13:13:33;;;;;;;0.83;0.40;;;;;;;20.50;31.60;99776.31;5073316;28;41441;-84
2022/01/20 13:16:10;;;;;;;2.97;0.73;;;;;;;21.12;30.29;99798.44;5074368;28;38780;-84
2022/01/20 13:18:37;;;;;;;2.67;0.53;;;;;;;21.32;29.46;99811.94;5073984;28;40799;-84
2022/01/20 13:21:07;;;;;;;0.83;0.43;;;;;;;20.19;31.65;99795.09;5090836;28;42933;-83
2022/01/20 13:23:55;;;;;;;1.37;0.50;;;;;;;18.28;32.43;99786.03;5073835;28;41480;-84
2022/01/20 13:26:24;;;;;;;1.70;0.50;;;;;;;16.66;35.54;99753.81;5089430;28;40067;-83
2022/01/20 13:29:00;;;;;;;0.90;0.70;;;;;;;15.62;37.47;99754.13;5073731;28;41672;-83
2022/01/20 13:31:27;;;;;;;1.27;0.97;;;;;;;14.78;38.30;99754.44;5069014;28;41688;-84
2022/01/20 13:33:55;;;;;;;0.60;0.60;;;;;;;13.76;38.32;99750.25;5073606;28;41242;-82
2022/01/20 13:36:23;;;;;;;1.83;0.60;;;;;;;12.83;39.02;99720.34;5074602;28;38772;-83
2022/01/20 13:38:59;;;;;;;1.17;0.77;;;;;;;12.05;40.21;99713.28;5069464;28;40966;-82
2022/01/20 13:41:29;;;;;;;3.03;0.80;;;;;;;11.41;41.97;99708.72;5075146;28;42553;-81
2022/01/20 13:46:47;;;;;;;1.47;1.10;;;;;;;10.17;44.56;99706.06;5071769;28;40000;-82
2022/01/20 13:49:17;;;;;;;0.87;0.87;;;;;;;9.73;46.25;99695.75;5070188;28;40989;-81
2022/01/20 13:51:45;;;;;;;2.00;0.80;;;;;;;8.95;48.73;99640.22;5071055;28;43448;-81
2022/01/20 13:54:14;;;;;;;2.30;0.90;;;;;;;8.67;50.79;99647.59;5089363;28;43048;-82
2022/01/20 13:56:51;;;;;;;0.60;0.60;;;;;;;8.17;52.38;99641.72;5072378;28;39235;-82
2022/01/20 13:59:19;;;;;;;2.07;0.70;;;;;;;7.68;52.91;99626.97;5071377;28;41933;-82
2022/01/20 14:01:46;;;;;;;1.43;0.80;;;;;;;7.34;54.27;99617.72;5092017;28;41384;-83
2022/01/20 14:04:15;;;;;;;4.33;0.80;;;;;;;7.10;55.20;99623.88;5076550;28;41815;-82
2022/01/20 14:06:43;;;;;;;1.70;1.07;;;;;;;6.88;56.16;99644.00;5076375;28;40223;-82
2022/01/20 14:09:10;;;;;;;1.47;0.90;;;;;;;6.42;57.16;99601.69;5076022;28;41853;-82
2022/01/20 14:11:40;;;;;;;0.97;0.50;;;;;;;6.41;57.40;99633.31;5075572;28;42875;-83
2022/01/20 14:14:09;;;;;;;1.13;0.60;;;;;;;6.34;58.04;99658.09;5076448;28;41942;-82
2022/01/20 14:16:36;;;;;;;0.60;0.60;;;;;;;6.21;58.85;99672.53;5091766;28;40893;-82
2022/01/20 14:19:06;;;;;;;1.47;0.60;;;;;;;5.86;59.24;99655.22;5076383;28;41119;-82
2022/01/20 14:21:34;;;;;;;0.90;0.37;;;;;;;6.03;59.25;99680.13;5077169;28;42435;-81
2022/01/20 14:24:01;;;;;;;2.13;0.50;;;;;;;5.89;60.15;99658.63;5084585;28;41433;-81
2022/01/20 14:26:31;;;;;;;1.23;1.13;;;;;;;5.81;60.43;99657.97;5094340;28;41150;-82
2022/01/20 14:29:00;;;;;;;1.40;0.60;;;;;;;5.81;59.78;99688.66;5082852;28;40705;-81
2022/01/20 14:31:27;;;;;;;0.87;0.50;;;;;;;5.58;59.80;99668.31;5075644;28;42367;-83
2022/01/20 14:34:01;;;;;;;1.70;0.73;;;;;;;5.59;60.14;99704.19;5076251;28;41521;-83
2022/01/20 14:36:29;;;;;;;0.90;0.60;;;;;;;5.51;59.98;99695.66;5076218;28;38951;-84
2022/01/20 14:38:56;;;;;;;0.73;0.40;;;;;;;5.67;60.28;99689.06;5075569;28;41733;-83
2022/01/20 14:41:24;;;;;;;0.60;0.40;;;;;;;5.90;59.35;99683.16;5092918;28;42866;-82
2022/01/20 14:43:52;;;;;;;0.70;0.70;;;;;;;6.13;58.60;99680.69;5092413;28;42431;-82
2022/01/20 14:46:21;;;;;;;3.33;0.97;;;;;;;6.63;57.94;99700.09;5075909;28;39270;-83
2022/01/20 14:48:49;;;;;;;1.40;0.90;;;;;;;6.65;56.50;99685.13;5075755;28;40563;-83
2022/01/20 14:51:16;;;;;;;1.90;0.70;;;;;;;6.21;56.83;99646.25;5075438;28;41870;-83
2022/01/20 14:53:44;;;;;;;1.53;0.80;;;;;;;6.04;56.37;99662.56;5092729;28;42533;-84
2022/01/20 14:56:17;;;;;;;2.10;0.70;;;;;;;6.12;57.25;99705.25;5075808;28;38941;-84
2022/01/20 14:58:45;;;;;;;0.60;0.60;;;;;;;5.93;56.54;99668.16;5075905;28;40418;-83
2022/01/20 15:01:12;;;;;;;1.43;0.70;;;;;;;6.12;56.50;99706.13;5081787;28;43476;-83
2022/01/20 15:03:41;;;;;;;0.63;0.57;;;;;;;5.81;56.63;99663.22;5073072;28;41808;-83
2022/01/20 15:06:09;;;;;;;1.27;0.57;;;;;;;6.11;56.06;99721.94;5075190;28;39219;-83
2022/01/20 15:08:37;;;;;;;2.23;0.60;;;;;;;6.05;56.96;99686.19;5092190;28;41658;-84
2022/01/20 15:11:04;;;;;;;2.33;0.40;;;;;;;6.15;56.92;99705.16;5057730;28;42181;-82
2022/01/20 15:13:32;;;;;;;0.97;0.70;;;;;;;5.79;56.26;99686.09;5092126;28;41776;-82
2022/01/20 15:15:59;;;;;;;5.10;0.60;;;;;;;5.38;56.83;99646.13;5072573;28;39241;-82
2022/01/20 15:18:27;;;;;;;1.67;0.63;;;;;;;5.48;57.48;99698.38;5075337;28;40715;-83
2022/01/20 15:20:56;;;;;;;1.83;0.73;;;;;;;5.33;58.30;99697.91;5091549;28;42906;-84
2022/01/20 15:23:24;;;;;;;2.63;0.70;;;;;;;5.24;58.65;99692.03;5075524;28;40830;-83
2022/01/20 15:25:52;;;;;;;1.57;0.70;;;;;;;5.24;58.78;99716.53;5092313;28;40152;-83
2022/01/20 15:28:20;;;;;;;1.33;0.50;;;;;;;4.97;58.90;99709.41;5075175;28;40836;-83
2022/01/20 15:30:48;;;;;;;0.40;0.40;;;;;;;4.89;59.40;99721.88;5075248;28;41775;-83
2022/01/20 15:33:15;;;;;;;2.03;0.67;;;;;;;4.81;59.99;99718.59;5075244;28;41023;-83
2022/01/20 15:35:43;;;;;;;1.43;0.83;;;;;;;4.72;60.36;99719.66;5066277;28;39931;-82
2022/01/20 15:38:13;;;;;;;3.10;1.10;;;;;;;4.54;60.59;99700.00;5108353;28;40579;-84
2022/01/20 15:40:40;;;;;;;1.17;1.10;;;;;;;4.50;60.62;99705.34;5074767;28;43103;-83
2022/01/20 15:43:08;;;;;;;0.40;0.37;;;;;;;4.14;60.63;99662.53;5075218;28;41255;-82
2022/01/20 15:45:36;;;;;;;2.00;1.20;;;;;;;4.23;61.43;99704.25;5075419;28;40010;-83
2022/01/20 15:48:04;;;;;;;0.90;0.50;;;;;;;4.16;61.90;99707.91;5075196;28;40713;-83
2022/01/20 15:50:33;;;;;;;1.03;0.60;;;;;;;3.96;61.61;99690.88;5074689;28;42670;-84
2022/01/20 15:53:04;;;;;;;4.00;0.53;;;;;;;3.87;62.26;99684.97;5074799;28;41177;-83
2022/01/20 15:55:38;;;;;;;0.70;0.70;;;;;;;3.90;62.07;99703.25;5091616;28;39059;-83
2022/01/20 15:58:06;;;;;;;1.37;0.70;;;;;;;3.87;62.69;99701.56;5081335;28;41157;-83
2022/01/20 16:00:40;;;;;;;3.60;0.77;;;;;;;3.38;63.25;99638.03;5092492;28;41920;-83
2022/01/20 16:03:08;;;;;;;0.50;0.43;;;;;;;3.37;63.21;99649.41;5110470;28;40642;-83
2022/01/20 16:05:37;;;;;;;2.87;0.77;;;;;;;3.33;63.16;99676.56;5093267;28;40022;-83
2022/01/20 16:08:06;;;;;;;2.53;0.40;;;;;;;3.41;63.54;99698.19;5087547;28;40821;-83
2022/01/20 16:10:34;;;;;;;2.57;0.80;;;;;;;3.44;63.89;99713.84;5092221;28;42797;-83
2022/01/20 16:13:02;;;;;;;1.37;0.60;;;;;;;3.24;63.74;99704.63;5087484;28;41015;-84
2022/01/20 16:15:30;;;;;;;1.20;0.70;;;;;;;3.13;64.20;99711.81;5075600;28;39111;-83
2022/01/20 16:17:58;;;;;;;0.60;0.57;;;;;;;3.12;64.35;99717.94;5074781;28;41326;-85
2022/01/20 16:20:26;;;;;;;2.20;1.40;;;;;;;3.16;64.36;99727.47;5074411;28;42914;-83
2022/01/20 16:22:54;;;;;;;0.50;0.50;;;;;;;3.13;64.19;99730.13;5090426;28;42422;-84
2022/01/20 16:25:22;;;;;;;0.77;0.57;;;;;;;2.86;64.17;99691.38;5074791;28;39299;-84
2022/01/20 16:27:51;;;;;;;1.73;0.90;;;;;;;2.95;64.56;99721.78;5091645;28;42675;-82
2022/01/20 16:30:19;;;;;;;1.97;0.77;;;;;;;2.99;64.66;99739.97;5074128;28;42574;-83
2022/01/20 16:32:46;;;;;;;0.60;0.40;;;;;;;2.86;64.80;99730.63;5090853;28;41137;-84
2022/01/20 16:35:14;;;;;;;0.50;0.50;;;;;;;2.76;64.75;99729.91;5074124;28;39262;-84
2022/01/20 16:37:43;;;;;;;0.50;0.50;;;;;;;2.84;65.20;99746.34;5074352;28;40562;-84
2022/01/20 16:40:12;;;;;;;0.60;0.60;;;;;;;2.74;64.91;99733.44;5090753;28;42362;-82
2022/01/20 16:42:40;;;;;;;1.10;0.70;;;;;;;2.75;65.06;99735.19;5091025;28;42123;-84
2022/01/20 16:45:10;;;;;;;1.77;1.10;;;;;;;2.75;64.94;99730.81;5066479;28;38796;-84
2022/01/20 16:47:40;;;;;;;3.70;1.43;;;;;;;2.80;65.06;99749.06;5072762;28;41807;-83
2022/01/20 16:50:10;;;;;;;0.80;0.80;;;;;;;2.87;64.70;99756.75;5073137;28;42155;-84
2022/01/20 16:52:38;;;;;;;0.73;0.67;;;;;;;2.81;64.62;99758.63;5073431;28;42358;-84
2022/01/20 16:55:07;;;;;;;2.03;0.63;;;;;;;2.86;64.60;99770.72;5090319;28;39959;-84
2022/01/20 16:57:35;;;;;;;0.60;0.60;;;;;;;2.96;64.76;99781.06;5074791;28;40877;-84
2022/01/20 17:00:06;;;;;;;2.00;1.00;;;;;;;2.84;64.84;99761.19;5079071;28;42035;-84
2022/01/20 17:02:40;;;;;;;1.30;0.73;;;;;;;2.80;65.30;99764.75;5074390;28;41586;-84
2022/01/20 17:05:12;;;;;;;0.83;0.83;;;;;;;2.86;65.25;99780.31;5073981;28;39977;-84
2022/01/20 17:07:40;;;;;;;1.57;0.80;;;;;;;2.82;65.79;99770.81;5073988;28;42083;-84
2022/01/20 17:10:08;;;;;;;6.07;0.80;;;;;;;2.88;65.82;99778.56;5090096;28;41923;-83
2022/01/20 17:12:36;;;;;;;2.13;0.93;;;;;;;2.52;65.90;99712.03;5074634;28;40763;-83
2022/01/20 17:15:04;;;;;;;2.10;0.70;;;;;;;2.89;66.43;99775.06;5087677;28;40218;-82
2022/01/20 17:17:31;;;;;;;0.70;0.70;;;;;;;2.69;66.29;99738.78;5073549;28;40718;-84
2022/01/20 17:20:00;;;;;;;2.40;0.80;;;;;;;2.92;66.25;99764.53;5072691;28;42703;-84
2022/01/20 17:22:28;;;;;;;0.60;0.60;;;;;;;2.98;66.31;99753.09;5073514;28;41029;-84
2022/01/20 17:24:56;;;;;;;2.00;0.97;;;;;;;2.97;66.12;99747.00;5073138;28;39270;-84
2022/01/20 17:27:24;;;;;;;1.37;0.70;;;;;;;3.06;65.75;99762.56;5073775;28;40704;-83
2022/01/20 17:29:51;;;;;;;1.53;1.17;;;;;;;3.05;65.84;99765.19;5073339;28;41986;-85
2022/01/20 17:32:20;;;;;;;1.53;0.70;;;;;;;3.06;66.03;99772.16;5072847;28;41106;-86
2022/01/20 17:34:48;;;;;;;2.83;0.73;;;;;;;3.13;66.31;99799.94;5072961;28;40015;-80
2022/01/20 17:37:18;;;;;;;0.80;0.70;;;;;;;3.04;66.54;99785.25;5075480;28;40989;-83
2022/01/20 17:39:45;;;;;;;1.87;0.70;;;;;;;3.06;66.72;99793.94;5092653;28;44073;-82
2022/01/20 17:42:13;;;;;;;1.43;1.23;;;;;;;2.93;67.06;99776.72;5095314;28;42107;-82
2022/01/20 17:44:41;;;;;;;1.90;1.03;;;;;;;2.81;67.85;99772.56;5076771;28;39111;-81
2022/01/20 17:47:08;;;;;;;2.27;1.00;;;;;;;2.91;68.20;99790.72;5075993;28;40536;-82
2022/01/20 17:49:36;;;;;;;0.80;0.67;;;;;;;2.92;68.36;99785.47;5092708;28;43444;-82
2022/01/20 17:52:04;;;;;;;3.03;1.10;;;;;;;2.99;69.16;99802.78;5093880;28;42335;-83
2022/01/20 17:54:34;;;;;;;3.23;0.80;;;;;;;3.07;69.98;99795.69;5094366;28;40894;-82
2022/01/20 17:57:02;;;;;;;3.17;1.33;;;;;;;3.06;70.12;99778.25;5077598;28;41053;-80
2022/01/20 17:59:30;;;;;;;4.00;1.20;;;;;;;3.16;70.71;99800.75;5076200;28;43350;-81
2022/01/20 18:01:57;;;;;;;1.33;1.23;;;;;;;3.18;70.46;99798.97;5077618;28;42235;-83
2022/01/20 18:04:25;;;;;;;0.90;0.90;;;;;;;3.21;70.75;99804.13;5093482;28;39853;-81
2022/01/20 18:06:52;;;;;;;2.20;2.00;;;;;;;3.20;71.18;99791.97;5093880;28;42613;-81
2022/01/20 18:09:20;;;;;;;1.63;1.47;;;;;;;3.19;70.95;99789.38;5076028;28;42010;-83
2022/01/20 18:11:49;;;;;;;2.40;1.20;;;;;;;3.08;71.23;99773.84;5060394;28;42313;-81
2022/01/20 18:14:17;;;;;;;3.03;1.40;;;;;;;3.33;71.21;99810.06;5094349;28;39696;-83
2022/01/20 18:16:44;;;;;;;2.13;1.10;;;;;;;3.25;70.49;99797.97;5093344;28;40498;-84
2022/01/20 18:19:12;;;;;;;2.07;1.60;;;;;;;3.39;71.01;99807.31;5076231;28;43044;-81
2022/01/20 18:21:40;;;;;;;2.50;1.30;;;;;;;3.43;70.86;99814.25;5076782;28;41106;-80
2022/01/20 18:24:07;;;;;;;4.10;1.20;;;;;;;3.34;70.85;99793.47;5076800;28;38852;-82
2022/01/20 18:26:35;;;;;;;3.50;1.00;;;;;;;3.35;71.25;99806.50;5075778;28;40493;-81
2022/01/20 18:29:04;;;;;;;2.67;2.47;;;;;;;3.42;71.29;99817.75;5093170;28;43522;-81
2022/01/20 18:31:32;;;;;;;1.37;1.03;;;;;;;3.40;71.14;99816.91;5076096;28;42039;-81
2022/01/20 18:34:00;;;;;;;3.73;1.50;;;;;;;3.23;71.40;99791.03;5093076;28;40551;-82
2022/01/20 18:36:28;;;;;;;2.80;0.90;;;;;;;3.29;71.80;99817.09;5075849;28;40528;-82
2022/01/20 18:38:56;;;;;;;1.63;1.00;;;;;;;3.35;71.98;99831.81;5071947;28;41662;-81
2022/01/20 18:41:23;;;;;;;1.40;1.30;;;;;;;3.30;72.77;99828.44;5056291;28;41124;-82
2022/01/20 18:43:51;;;;;;;3.77;2.17;;;;;;;2.77;73.13;99755.19;5076127;28;39148;-82
2022/01/20 18:46:20;;;;;;;2.93;1.47;;;;;;;3.10;73.89;99808.69;5092363;28;41620;-83
2022/01/20 18:48:48;;;;;;;1.40;0.97;;;;;;;3.01;74.04;99816.72;5076397;28;42037;-81
2022/01/20 18:51:15;;;;;;;1.83;1.20;;;;;;;2.47;75.04;99753.91;5093132;28;41793;-81
2022/01/20 18:53:43;;;;;;;4.77;2.43;;;;;;;2.73;75.13;99810.19;5076343;28;39114;-81
2022/01/20 18:56:10;;;;;;;2.63;1.87;;;;;;;2.67;75.08;99794.59;5092871;28;42079;-81
2022/01/20 18:58:38;;;;;;;2.47;1.07;;;;;;;2.78;75.35;99809.25;5076482;28;43450;-82
2022/01/20 19:01:06;;;;;;;4.00;1.60;;;;;;;2.59;75.06;99807.81;5109866;28;41191;-81
2022/01/20 19:03:36;;;;;;;6.13;1.30;;;;;;;2.62;74.75;99828.66;5075726;28;39205;-83
2022/01/20 19:06:04;;;;;;;2.67;1.40;;;;;;;2.56;74.92;99820.06;5075369;28;40972;-82
2022/01/20 19:08:32;;;;;;;2.80;1.33;;;;;;;2.53;74.79;99810.50;5076329;28;42690;-80
2022/01/20 19:10:59;;;;;;;3.17;1.00;;;;;;;2.45;74.33;99820.22;5092444;28;41057;-80
2022/01/20 19:13:31;;;;;;;1.63;1.30;;;;;;;2.48;74.45;99830.59;5093962;28;39971;-82
2022/01/20 19:15:59;;;;;;;4.93;1.80;;;;;;;2.40;73.86;99833.34;5075665;28;40987;-82
2022/01/20 19:18:27;;;;;;;2.10;1.23;;;;;;;2.31;73.62;99832.59;5093088;28;43629;-82
2022/01/20 19:20:57;;;;;;;1.37;1.10;;;;;;;2.26;73.49;99834.41;5075575;28;42300;-81
2022/01/20 19:23:26;;;;;;;1.40;0.80;;;;;;;2.30;73.79;99841.34;5092477;28;39306;-81
2022/01/20 19:25:54;;;;;;;1.03;1.03;;;;;;;2.24;73.79;99849.25;5091824;28;41756;-82
2022/01/20 19:28:22;;;;;;;2.10;1.00;;;;;;;2.13;73.34;99841.53;5110171;28;42911;-82
2022/01/20 19:30:51;;;;;;;2.70;1.00;;;;;;;2.16;73.70;99854.56;5075226;28;42494;-82
2022/01/20 19:33:19;;;;;;;1.53;1.00;;;;;;;2.22;73.62;99861.47;5093888;28;40266;-80
